createdAt,value
2017-09-10T00:00:29.121Z,12.18
2017-09-10T00:01:29.846Z,12.07
2017-09-10T00:02:30.565Z,12.12
2017-09-10T00:03:31.286Z,12.10
2017-09-10T00:04:32.003Z,12.10
2017-09-10T00:05:32.725Z,12.10
2017-09-10T00:06:33.445Z,12.07
2017-09-10T00:07:34.169Z,12.02
2017-09-10T00:08:34.890Z,11.99
2017-09-10T00:09:35.610Z,11.97
2017-09-10T00:10:36.330Z,12.03
2017-09-10T00:11:37.053Z,11.99
2017-09-10T00:12:37.795Z,12.00
2017-09-10T00:13:38.515Z,11.94
2017-09-10T00:14:39.234Z,11.97
2017-09-10T00:15:39.954Z,11.95
2017-09-10T00:16:40.675Z,11.97
2017-09-10T00:17:41.396Z,11.94
2017-09-10T00:18:42.114Z,11.88
2017-09-10T00:19:42.837Z,11.94
2017-09-10T00:20:43.560Z,11.86
2017-09-10T00:21:44.277Z,11.84
2017-09-10T00:22:45.000Z,11.84
2017-09-10T00:23:45.717Z,11.90
2017-09-10T00:24:46.438Z,11.81
2017-09-10T00:25:47.157Z,11.84
2017-09-10T00:26:47.877Z,11.88
2017-09-10T00:27:48.598Z,11.86
2017-09-10T00:28:49.325Z,11.78
2017-09-10T00:29:50.039Z,11.77
2017-09-10T00:30:50.786Z,11.81
2017-09-10T00:31:51.509Z,11.77
2017-09-10T00:32:52.229Z,11.80
2017-09-10T00:33:52.948Z,11.77
2017-09-10T00:34:53.671Z,11.80
2017-09-10T00:35:54.410Z,11.70
2017-09-10T00:36:55.154Z,11.73
2017-09-10T00:37:55.875Z,11.73
2017-09-10T00:38:56.597Z,11.69
2017-09-10T00:39:57.319Z,11.77
2017-09-10T00:40:58.037Z,11.73
2017-09-10T00:41:58.779Z,11.73
2017-09-10T00:42:59.500Z,11.70
2017-09-10T00:44:00.222Z,11.68
2017-09-10T00:45:00.942Z,11.65
2017-09-10T00:46:01.662Z,11.66
2017-09-10T00:47:02.383Z,11.54
2017-09-10T00:48:03.101Z,11.60
2017-09-10T00:49:03.831Z,11.72
2017-09-10T00:50:04.542Z,11.68
2017-09-10T00:51:05.263Z,11.65
2017-09-10T00:52:05.982Z,11.55
2017-09-10T00:53:06.703Z,11.57
2017-09-10T00:54:07.444Z,11.62
2017-09-10T00:55:08.166Z,11.52
2017-09-10T00:56:08.892Z,11.57
2017-09-10T00:57:09.631Z,11.54
2017-09-10T00:58:10.352Z,11.54
2017-09-10T00:59:11.074Z,11.55
2017-09-10T01:00:11.793Z,11.47
2017-09-10T01:01:12.521Z,11.47
2017-09-10T01:02:13.260Z,11.48
2017-09-10T01:03:13.978Z,11.45
2017-09-10T01:04:14.699Z,11.51
2017-09-10T01:05:15.418Z,11.52
2017-09-10T01:06:16.141Z,11.50
2017-09-10T01:07:16.861Z,11.50
2017-09-10T01:08:17.580Z,11.44
2017-09-10T01:09:18.325Z,11.41
2017-09-10T01:10:19.043Z,11.44
2017-09-10T01:11:19.786Z,11.40
2017-09-10T01:12:20.506Z,11.41
2017-09-10T01:13:21.228Z,11.41
2017-09-10T01:14:21.946Z,11.37
2017-09-10T01:15:22.667Z,11.41
2017-09-10T01:16:23.387Z,11.45
2017-09-10T01:17:24.109Z,11.40
2017-09-10T01:18:24.853Z,11.41
2017-09-10T01:19:25.574Z,11.43
2017-09-10T01:20:26.292Z,11.43
2017-09-10T01:21:27.035Z,11.47
2017-09-10T01:22:27.757Z,11.47
2017-09-10T01:23:28.476Z,11.48
2017-09-10T01:24:29.216Z,11.47
2017-09-10T01:25:29.959Z,11.45
2017-09-10T01:26:30.678Z,11.45
2017-09-10T01:27:31.400Z,11.48
2017-09-10T01:28:32.120Z,11.47
2017-09-10T01:29:32.843Z,11.44
2017-09-10T01:30:33.558Z,11.40
2017-09-10T01:31:34.281Z,11.47
2017-09-10T01:32:35.002Z,11.44
2017-09-10T01:33:35.721Z,11.45
2017-09-10T01:34:36.443Z,11.41
2017-09-10T01:35:37.162Z,11.41
2017-09-10T01:36:37.884Z,11.40
2017-09-10T01:37:38.604Z,11.37
2017-09-10T01:38:39.324Z,11.47
2017-09-10T01:39:40.048Z,11.35
2017-09-10T01:40:40.788Z,11.36
2017-09-10T01:41:41.508Z,11.40
2017-09-10T01:42:42.227Z,11.48
2017-09-10T01:43:42.973Z,11.41
2017-09-10T01:44:43.692Z,11.40
2017-09-10T01:45:44.414Z,11.44
2017-09-10T01:46:45.139Z,11.43
2017-09-10T01:47:45.855Z,11.40
2017-09-10T01:48:46.575Z,11.36
2017-09-10T01:49:47.295Z,11.40
2017-09-10T01:50:48.019Z,11.33
2017-09-10T01:51:48.739Z,11.40
2017-09-10T01:52:49.481Z,11.33
2017-09-10T01:53:50.200Z,11.40
2017-09-10T01:54:50.921Z,11.43
2017-09-10T01:55:51.641Z,11.33
2017-09-10T01:56:52.360Z,11.35
2017-09-10T01:57:53.103Z,11.27
2017-09-10T01:58:53.829Z,11.33
2017-09-10T01:59:54.541Z,11.30
2017-09-10T02:00:55.265Z,11.37
2017-09-10T02:01:55.986Z,11.36
2017-09-10T02:02:56.728Z,11.45
2017-09-10T02:03:57.453Z,11.22
2017-09-10T02:04:58.171Z,11.33
2017-09-10T02:05:58.889Z,11.35
2017-09-10T02:06:59.631Z,11.30
2017-09-10T02:08:00.350Z,11.30
2017-09-10T02:09:01.074Z,11.25
2017-09-10T02:10:01.794Z,11.29
2017-09-10T02:11:02.538Z,11.17
2017-09-10T02:12:03.258Z,11.29
2017-09-10T02:13:03.976Z,11.23
2017-09-10T02:14:04.718Z,11.19
2017-09-10T02:15:05.440Z,11.23
2017-09-10T02:16:06.159Z,11.23
2017-09-10T02:17:06.901Z,11.17
2017-09-10T02:18:07.619Z,11.14
2017-09-10T02:19:08.365Z,11.23
2017-09-10T02:20:09.084Z,11.17
2017-09-10T02:21:09.805Z,11.12
2017-09-10T02:22:10.547Z,11.11
2017-09-10T02:23:11.266Z,11.15
2017-09-10T02:24:11.987Z,11.15
2017-09-10T02:25:12.709Z,11.10
2017-09-10T02:26:13.432Z,11.04
2017-09-10T02:27:14.173Z,11.15
2017-09-10T02:28:14.892Z,11.11
2017-09-10T02:29:15.638Z,11.07
2017-09-10T02:30:16.359Z,11.14
2017-09-10T02:31:17.080Z,11.15
2017-09-10T02:32:17.824Z,11.10
2017-09-10T02:33:18.544Z,11.07
2017-09-10T02:34:19.264Z,11.11
2017-09-10T02:35:19.985Z,11.12
2017-09-10T02:36:20.729Z,11.10
2017-09-10T02:37:21.450Z,11.07
2017-09-10T02:38:22.193Z,11.14
2017-09-10T02:39:22.935Z,11.07
2017-09-10T02:40:23.673Z,11.08
2017-09-10T02:41:24.400Z,11.08
2017-09-10T02:42:25.114Z,11.05
2017-09-10T02:43:25.836Z,11.07
2017-09-10T02:44:26.557Z,11.04
2017-09-10T02:45:27.278Z,11.05
2017-09-10T02:46:27.997Z,11.11
2017-09-10T02:47:28.718Z,11.05
2017-09-10T02:48:29.443Z,11.17
2017-09-10T02:49:30.173Z,10.93
2017-09-10T02:50:30.901Z,11.05
2017-09-10T02:51:31.621Z,10.99
2017-09-10T02:52:32.364Z,10.96
2017-09-10T02:53:33.087Z,11.04
2017-09-10T02:54:33.804Z,10.99
2017-09-10T02:55:34.526Z,10.96
2017-09-10T02:56:35.246Z,10.96
2017-09-10T02:57:35.988Z,10.99
2017-09-10T02:58:36.709Z,11.02
2017-09-10T02:59:37.427Z,11.07
2017-09-10T03:00:38.146Z,11.05
2017-09-10T03:01:38.868Z,11.00
2017-09-10T03:02:39.612Z,10.93
2017-09-10T03:03:40.333Z,10.93
2017-09-10T03:04:41.080Z,10.94
2017-09-10T03:05:41.797Z,10.94
2017-09-10T03:06:42.540Z,10.94
2017-09-10T03:07:43.262Z,10.96
2017-09-10T03:08:43.982Z,10.92
2017-09-10T03:09:44.702Z,10.94
2017-09-10T03:10:45.420Z,10.94
2017-09-10T03:11:46.139Z,10.96
2017-09-10T03:12:46.879Z,10.90
2017-09-10T03:13:47.599Z,10.90
2017-09-10T03:14:48.341Z,10.94
2017-09-10T03:15:49.063Z,10.92
2017-09-10T03:16:49.784Z,10.81
2017-09-10T03:17:50.522Z,10.84
2017-09-10T03:18:51.246Z,10.90
2017-09-10T03:19:51.963Z,10.86
2017-09-10T03:20:52.705Z,10.89
2017-09-10T03:21:53.446Z,10.84
2017-09-10T03:22:54.189Z,10.81
2017-09-10T03:23:54.933Z,10.81
2017-09-10T03:24:55.675Z,10.81
2017-09-10T03:25:56.393Z,10.76
2017-09-10T03:26:57.115Z,10.82
2017-09-10T03:27:57.835Z,10.72
2017-09-10T03:28:58.554Z,10.84
2017-09-10T03:29:59.294Z,10.75
2017-09-10T03:31:00.017Z,10.76
2017-09-10T03:32:00.760Z,10.78
2017-09-10T03:33:01.480Z,10.78
2017-09-10T03:34:02.197Z,10.78
2017-09-10T03:35:02.916Z,10.79
2017-09-10T03:36:03.638Z,10.79
2017-09-10T03:37:04.381Z,10.76
2017-09-10T03:38:05.100Z,10.78
2017-09-10T03:39:05.822Z,10.81
2017-09-10T03:40:06.563Z,10.81
2017-09-10T03:41:07.289Z,10.90
2017-09-10T03:42:08.005Z,10.87
2017-09-10T03:43:08.747Z,10.87
2017-09-10T03:44:09.471Z,10.84
2017-09-10T03:45:10.187Z,10.89
2017-09-10T03:46:10.908Z,10.86
2017-09-10T03:47:11.629Z,10.93
2017-09-10T03:48:12.348Z,10.89
2017-09-10T03:49:13.070Z,10.92
2017-09-10T03:50:13.816Z,10.89
2017-09-10T03:51:14.559Z,10.86
2017-09-10T03:52:15.278Z,10.89
2017-09-10T03:53:15.996Z,10.87
2017-09-10T03:54:16.719Z,10.89
2017-09-10T03:55:17.435Z,10.92
2017-09-10T03:56:18.158Z,10.87
2017-09-10T03:57:18.904Z,10.90
2017-09-10T03:58:19.624Z,10.81
2017-09-10T03:59:20.339Z,10.82
2017-09-10T04:00:21.072Z,10.78
2017-09-10T04:01:21.777Z,10.79
2017-09-10T04:02:22.521Z,10.74
2017-09-10T04:03:23.261Z,10.74
2017-09-10T04:04:24.004Z,10.78
2017-09-10T04:05:24.748Z,10.75
2017-09-10T04:06:25.466Z,10.69
2017-09-10T04:07:26.188Z,10.63
2017-09-10T04:08:26.906Z,10.67
2017-09-10T04:09:27.627Z,10.68
2017-09-10T04:10:28.345Z,10.68
2017-09-10T04:11:29.066Z,10.69
2017-09-10T04:12:29.810Z,10.71
2017-09-10T04:13:30.530Z,10.68
2017-09-10T04:14:31.248Z,10.61
2017-09-10T04:15:31.967Z,10.57
2017-09-10T04:16:32.687Z,10.59
2017-09-10T04:17:33.410Z,10.59
2017-09-10T04:18:34.131Z,10.59
2017-09-10T04:19:34.881Z,10.54
2017-09-10T04:20:35.594Z,10.53
2017-09-10T04:21:36.337Z,10.49
2017-09-10T04:22:37.058Z,10.60
2017-09-10T04:23:37.791Z,10.60
2017-09-10T04:24:38.496Z,10.48
2017-09-10T04:25:39.239Z,10.48
2017-09-10T04:26:39.984Z,10.48
2017-09-10T04:27:40.703Z,10.46
2017-09-10T04:28:41.462Z,10.44
2017-09-10T04:29:42.170Z,10.40
2017-09-10T04:30:42.923Z,10.46
2017-09-10T04:31:43.632Z,10.49
2017-09-10T04:32:44.351Z,10.49
2017-09-10T04:33:45.069Z,10.41
2017-09-10T04:34:45.811Z,10.40
2017-09-10T04:35:46.534Z,10.35
2017-09-10T04:36:47.255Z,10.41
2017-09-10T04:37:47.977Z,10.41
2017-09-10T04:38:48.696Z,10.38
2017-09-10T04:39:49.416Z,10.49
2017-09-10T04:40:50.138Z,10.41
2017-09-10T04:41:50.861Z,10.38
2017-09-10T04:42:51.599Z,10.41
2017-09-10T04:43:52.340Z,10.41
2017-09-10T04:44:53.063Z,10.37
2017-09-10T04:45:53.812Z,10.38
2017-09-10T04:46:54.538Z,10.42
2017-09-10T04:47:55.260Z,10.40
2017-09-10T04:48:55.982Z,10.37
2017-09-10T04:49:56.701Z,10.38
2017-09-10T04:50:57.424Z,10.34
2017-09-10T04:51:58.166Z,10.31
2017-09-10T04:52:58.888Z,10.41
2017-09-10T04:53:59.607Z,10.31
2017-09-10T04:55:00.329Z,10.31
2017-09-10T04:56:01.052Z,10.38
2017-09-10T04:57:01.797Z,10.41
2017-09-10T04:58:02.520Z,10.35
2017-09-10T04:59:03.259Z,10.31
2017-09-10T05:00:03.982Z,10.41
2017-09-10T05:01:04.705Z,10.35
2017-09-10T05:02:05.426Z,10.35
2017-09-10T05:03:06.151Z,10.37
2017-09-10T05:04:06.894Z,10.35
2017-09-10T05:05:07.616Z,10.37
2017-09-10T05:06:08.341Z,10.42
2017-09-10T05:07:09.065Z,10.35
2017-09-10T05:08:09.786Z,10.38
2017-09-10T05:09:10.512Z,10.34
2017-09-10T05:10:11.236Z,10.40
2017-09-10T05:11:11.957Z,10.46
2017-09-10T05:12:12.682Z,10.40
2017-09-10T05:13:13.405Z,10.35
2017-09-10T05:14:14.128Z,10.40
2017-09-10T05:15:14.875Z,10.46
2017-09-10T05:16:15.599Z,10.48
2017-09-10T05:17:16.322Z,10.42
2017-09-10T05:18:17.044Z,10.46
2017-09-10T05:19:17.769Z,10.51
2017-09-10T05:20:18.495Z,10.37
2017-09-10T05:21:19.217Z,10.42
2017-09-10T05:22:19.962Z,10.49
2017-09-10T05:23:20.687Z,10.46
2017-09-10T05:24:21.412Z,10.40
2017-09-10T05:25:22.155Z,10.48
2017-09-10T05:26:22.898Z,10.42
2017-09-10T05:27:23.627Z,10.48
2017-09-10T05:28:24.353Z,10.41
2017-09-10T05:29:25.076Z,10.44
2017-09-10T05:30:25.802Z,10.54
2017-09-10T05:31:26.524Z,10.48
2017-09-10T05:32:27.248Z,10.57
2017-09-10T05:33:27.992Z,10.60
2017-09-10T05:34:28.738Z,10.68
2017-09-10T05:35:29.461Z,10.64
2017-09-10T05:36:30.185Z,10.78
2017-09-10T05:37:30.912Z,10.79
2017-09-10T05:38:31.658Z,10.79
2017-09-10T05:39:32.404Z,10.84
2017-09-10T05:40:33.127Z,10.92
2017-09-10T05:41:33.875Z,10.96
2017-09-10T05:42:34.623Z,10.90
2017-09-10T05:43:35.344Z,11.02
2017-09-10T05:44:36.071Z,11.00
2017-09-10T05:45:36.797Z,11.04
2017-09-10T05:46:37.543Z,11.15
2017-09-10T05:47:38.270Z,11.07
2017-09-10T05:48:38.997Z,11.08
2017-09-10T05:49:39.745Z,11.11
2017-09-10T05:50:40.468Z,11.17
2017-09-10T05:51:41.192Z,11.14
2017-09-10T05:52:41.943Z,11.23
2017-09-10T05:53:42.667Z,11.18
2017-09-10T05:54:43.394Z,11.22
2017-09-10T05:55:44.119Z,11.29
2017-09-10T05:56:44.844Z,11.18
2017-09-10T05:57:45.596Z,11.35
2017-09-10T05:58:46.346Z,11.26
2017-09-10T05:59:47.070Z,11.36
2017-09-10T06:00:47.798Z,11.43
2017-09-10T06:01:48.529Z,11.40
2017-09-10T06:02:49.274Z,11.32
2017-09-10T06:03:50.005Z,11.35
2017-09-10T06:04:50.731Z,11.36
2017-09-10T06:05:51.456Z,11.36
2017-09-10T06:06:52.186Z,11.43
2017-09-10T06:07:52.912Z,11.50
2017-09-10T06:08:53.638Z,11.52
2017-09-10T06:09:54.364Z,11.59
2017-09-10T06:10:55.111Z,11.73
2017-09-10T06:11:55.860Z,11.70
2017-09-10T06:12:56.589Z,11.68
2017-09-10T06:13:57.314Z,11.77
2017-09-10T06:14:58.064Z,11.75
2017-09-10T06:15:58.791Z,11.86
2017-09-10T06:16:59.517Z,11.91
2017-09-10T06:18:00.246Z,11.99
2017-09-10T06:19:00.994Z,11.97
2017-09-10T06:20:01.744Z,12.15
2017-09-10T06:21:02.475Z,12.12
2017-09-10T06:22:03.224Z,12.27
2017-09-10T06:23:03.952Z,12.35
2017-09-10T06:24:04.682Z,12.46
2017-09-10T06:25:05.432Z,12.49
2017-09-10T06:26:06.157Z,12.43
2017-09-10T06:27:06.887Z,12.45
2017-09-10T06:28:07.616Z,12.57
2017-09-10T06:29:08.367Z,12.70
2017-09-10T06:30:09.098Z,12.70
2017-09-10T06:31:09.830Z,12.76
2017-09-10T06:32:10.557Z,12.85
2017-09-10T06:33:11.308Z,12.85
2017-09-10T06:34:12.037Z,12.87
2017-09-10T06:35:12.767Z,12.98
2017-09-10T06:36:13.518Z,12.95
2017-09-10T06:37:14.248Z,13.00
2017-09-10T06:38:15.002Z,13.15
2017-09-10T06:39:15.756Z,12.97
2017-09-10T06:40:16.486Z,13.19
2017-09-10T06:41:17.214Z,13.27
2017-09-10T06:42:17.944Z,13.13
2017-09-10T06:43:18.676Z,13.23
2017-09-10T06:44:19.406Z,13.39
2017-09-10T06:45:20.132Z,13.19
2017-09-10T06:46:20.861Z,13.39
2017-09-10T06:47:21.621Z,13.50
2017-09-10T06:48:22.365Z,13.59
2017-09-10T06:49:23.117Z,13.74
2017-09-10T06:50:23.848Z,13.78
2017-09-10T06:51:24.614Z,13.90
2017-09-10T06:52:25.346Z,13.95
2017-09-10T06:53:26.095Z,14.00
2017-09-10T06:54:26.828Z,14.17
2017-09-10T06:55:27.556Z,14.00
2017-09-10T06:56:28.289Z,13.89
2017-09-10T06:57:29.019Z,14.00
2017-09-10T06:58:29.745Z,14.25
2017-09-10T06:59:30.476Z,14.22
2017-09-10T07:00:31.205Z,14.28
2017-09-10T07:01:31.939Z,14.33
2017-09-10T07:02:32.667Z,14.25
2017-09-10T07:03:33.420Z,14.43
2017-09-10T07:04:34.151Z,14.62
2017-09-10T07:05:34.881Z,14.72
2017-09-10T07:06:35.618Z,14.66
2017-09-10T07:07:36.350Z,14.60
2017-09-10T07:08:37.104Z,14.62
2017-09-10T07:09:37.840Z,14.63
2017-09-10T07:10:38.573Z,14.53
2017-09-10T07:11:39.327Z,14.63
2017-09-10T07:12:40.058Z,14.96
2017-09-10T07:13:40.792Z,15.19
2017-09-10T07:14:41.526Z,15.21
2017-09-10T07:15:42.259Z,15.07
2017-09-10T07:16:42.992Z,15.21
2017-09-10T07:17:43.749Z,15.54
2017-09-10T07:18:44.480Z,15.47
2017-09-10T07:19:45.216Z,15.77
2017-09-10T07:20:45.974Z,15.79
2017-09-10T07:21:46.709Z,15.67
2017-09-10T07:22:47.440Z,14.97
2017-09-10T07:23:48.176Z,15.02
2017-09-10T07:24:48.961Z,15.10
2017-09-10T07:25:49.714Z,15.39
2017-09-10T07:26:50.450Z,15.51
2017-09-10T07:27:51.188Z,15.49
2017-09-10T07:28:51.921Z,15.70
2017-09-10T07:29:52.678Z,15.59
2017-09-10T07:30:53.410Z,15.35
2017-09-10T07:31:54.146Z,15.47
2017-09-10T07:32:54.881Z,15.36
2017-09-10T07:33:55.612Z,15.42
2017-09-10T07:34:56.353Z,15.64
2017-09-10T07:35:57.078Z,15.61
2017-09-10T07:36:57.816Z,15.62
2017-09-10T07:37:58.570Z,15.61
2017-09-10T07:38:59.308Z,15.47
2017-09-10T07:40:00.039Z,15.73
2017-09-10T07:41:00.774Z,15.68
2017-09-10T07:42:01.509Z,15.83
2017-09-10T07:43:02.246Z,15.72
2017-09-10T07:44:02.984Z,15.86
2017-09-10T07:45:03.742Z,16.10
2017-09-10T07:46:04.475Z,15.98
2017-09-10T07:47:05.210Z,15.68
2017-09-10T07:48:05.944Z,16.04
2017-09-10T07:49:06.700Z,16.00
2017-09-10T07:50:07.437Z,15.84
2017-09-10T07:51:08.173Z,16.20
2017-09-10T07:52:08.905Z,16.10
2017-09-10T07:53:09.641Z,16.01
2017-09-10T07:54:10.378Z,16.10
2017-09-10T07:55:11.114Z,15.94
2017-09-10T07:56:11.849Z,16.04
2017-09-10T07:57:12.583Z,16.00
2017-09-10T07:58:13.319Z,15.95
2017-09-10T07:59:14.053Z,15.98
2017-09-10T08:00:14.787Z,16.38
2017-09-10T08:01:15.522Z,16.46
2017-09-10T08:02:16.257Z,16.65
2017-09-10T08:03:16.990Z,16.66
2017-09-10T08:04:17.725Z,16.78
2017-09-10T08:05:18.487Z,17.05
2017-09-10T08:06:19.245Z,17.27
2017-09-10T08:07:19.978Z,17.31
2017-09-10T08:08:20.732Z,17.48
2017-09-10T08:09:21.473Z,17.39
2017-09-10T08:10:22.206Z,17.05
2017-09-10T08:11:22.942Z,16.89
2017-09-10T08:12:23.685Z,16.75
2017-09-10T08:13:24.416Z,17.02
2017-09-10T08:14:25.228Z,17.45
2017-09-10T08:15:25.965Z,17.46
2017-09-10T08:16:26.701Z,17.86
2017-09-10T08:17:27.461Z,17.78
2017-09-10T08:18:28.224Z,18.56
2017-09-10T08:19:28.986Z,18.60
2017-09-10T08:20:29.725Z,18.41
2017-09-10T08:21:30.463Z,18.55
2017-09-10T08:22:31.202Z,18.29
2017-09-10T08:23:31.950Z,18.52
2017-09-10T08:24:32.680Z,19.14
2017-09-10T08:25:33.420Z,19.71
2017-09-10T08:26:34.172Z,20.09
2017-09-10T08:27:34.912Z,20.80
2017-09-10T08:28:35.651Z,20.99
2017-09-10T08:29:36.461Z,21.21
2017-09-10T08:30:37.229Z,20.90
2017-09-10T08:31:37.996Z,21.32
2017-09-10T08:32:38.758Z,21.18
2017-09-10T08:33:39.500Z,20.77
2017-09-10T08:34:40.266Z,19.70
2017-09-10T08:35:41.035Z,19.48
2017-09-10T08:36:41.772Z,19.36
2017-09-10T08:37:42.512Z,19.19
2017-09-10T08:38:43.252Z,18.59
2017-09-10T08:39:43.996Z,18.38
2017-09-10T08:40:44.760Z,18.11
2017-09-10T08:41:45.499Z,18.00
2017-09-10T08:42:46.236Z,18.62
2017-09-10T08:43:46.974Z,18.60
2017-09-10T08:44:47.713Z,18.35
2017-09-10T08:45:48.448Z,18.73
2017-09-10T08:46:49.186Z,17.98
2017-09-10T08:47:49.921Z,17.74
2017-09-10T08:48:50.656Z,18.10
2017-09-10T08:49:51.392Z,17.38
2017-09-10T08:50:52.214Z,17.15
2017-09-10T08:51:52.969Z,16.91
2017-09-10T08:52:53.704Z,16.58
2017-09-10T08:53:54.447Z,16.69
2017-09-10T08:54:55.174Z,16.72
2017-09-10T08:55:56.009Z,16.56
2017-09-10T08:56:56.746Z,16.43
2017-09-10T08:57:57.480Z,16.35
2017-09-10T08:58:58.213Z,16.72
2017-09-10T08:59:58.950Z,17.20
2017-09-10T09:00:59.710Z,18.05
2017-09-10T09:02:00.451Z,18.13
2017-09-10T09:03:01.188Z,18.43
2017-09-10T09:04:01.923Z,18.59
2017-09-10T09:05:02.661Z,18.33
2017-09-10T09:06:03.401Z,18.62
2017-09-10T09:07:04.138Z,18.78
2017-09-10T09:08:04.875Z,18.75
2017-09-10T09:09:05.636Z,18.47
2017-09-10T09:10:06.373Z,18.38
2017-09-10T09:11:07.134Z,18.34
2017-09-10T09:12:07.872Z,18.40
2017-09-10T09:13:08.616Z,18.49
2017-09-10T09:14:09.351Z,18.38
2017-09-10T09:15:10.090Z,18.08
2017-09-10T09:16:10.849Z,18.25
2017-09-10T09:17:11.587Z,18.18
2017-09-10T09:18:12.344Z,18.41
2017-09-10T09:19:13.086Z,18.45
2017-09-10T09:20:13.817Z,18.05
2017-09-10T09:21:14.556Z,18.04
2017-09-10T09:22:15.289Z,17.54
2017-09-10T09:23:16.024Z,17.71
2017-09-10T09:24:16.761Z,17.38
2017-09-10T09:25:17.500Z,17.48
2017-09-10T09:26:18.262Z,18.03
2017-09-10T09:27:18.998Z,18.44
2017-09-10T09:28:19.736Z,18.35
2017-09-10T09:29:20.475Z,18.01
2017-09-10T09:30:21.231Z,18.00
2017-09-10T09:31:21.963Z,17.34
2017-09-10T09:32:22.722Z,17.04
2017-09-10T09:33:23.459Z,16.96
2017-09-10T09:34:24.193Z,17.15
2017-09-10T09:35:24.928Z,17.39
2017-09-10T09:36:25.663Z,17.23
2017-09-10T09:37:26.426Z,17.46
2017-09-10T09:38:27.184Z,17.54
2017-09-10T09:39:27.918Z,17.54
2017-09-10T09:40:28.676Z,17.64
2017-09-10T09:41:29.410Z,17.82
2017-09-10T09:42:30.147Z,18.41
2017-09-10T09:43:30.885Z,18.55
2017-09-10T09:44:31.627Z,18.84
2017-09-10T09:45:32.366Z,19.45
2017-09-10T09:46:33.106Z,19.51
2017-09-10T09:47:33.845Z,19.95
2017-09-10T09:48:34.589Z,19.19
2017-09-10T09:49:35.331Z,19.74
2017-09-10T09:50:36.071Z,19.27
2017-09-10T09:51:36.815Z,19.40
2017-09-10T09:52:37.556Z,19.36
2017-09-10T09:53:38.298Z,18.56
2017-09-10T09:54:39.058Z,18.71
2017-09-10T09:55:39.798Z,18.28
2017-09-10T09:56:40.538Z,17.85
2017-09-10T09:57:41.279Z,18.00
2017-09-10T09:58:42.016Z,17.89
2017-09-10T09:59:42.755Z,18.43
2017-09-10T10:00:43.516Z,18.22
2017-09-10T10:01:44.256Z,18.68
2017-09-10T10:02:44.995Z,19.16
2017-09-10T10:03:45.735Z,19.74
2017-09-10T10:04:46.480Z,19.99
2017-09-10T10:05:47.223Z,20.11
2017-09-10T10:06:47.966Z,20.48
2017-09-10T10:07:48.708Z,20.21
2017-09-10T10:08:49.452Z,20.81
2017-09-10T10:09:50.193Z,20.59
2017-09-10T10:10:50.935Z,20.43
2017-09-10T10:11:51.681Z,20.74
2017-09-10T10:12:52.420Z,20.67
2017-09-10T10:13:53.156Z,20.10
2017-09-10T10:14:53.895Z,20.26
2017-09-10T10:15:54.640Z,20.11
2017-09-10T10:16:55.379Z,20.11
2017-09-10T10:17:56.123Z,20.75
2017-09-10T10:18:56.860Z,20.47
2017-09-10T10:19:57.599Z,20.47
2017-09-10T10:20:58.337Z,20.40
2017-09-10T10:21:59.079Z,20.09
2017-09-10T10:22:59.818Z,19.76
2017-09-10T10:24:00.559Z,19.34
2017-09-10T10:25:01.304Z,19.24
2017-09-10T10:26:02.037Z,19.11
2017-09-10T10:27:02.800Z,18.89
2017-09-10T10:28:03.534Z,18.99
2017-09-10T10:29:04.277Z,19.41
2017-09-10T10:30:05.021Z,19.99
2017-09-10T10:31:05.762Z,20.70
2017-09-10T10:32:06.504Z,20.75
2017-09-10T10:33:07.268Z,20.74
2017-09-10T10:34:08.012Z,20.47
2017-09-10T10:35:08.758Z,20.50
2017-09-10T10:36:09.495Z,20.81
2017-09-10T10:37:10.242Z,21.12
2017-09-10T10:38:10.980Z,20.67
2017-09-10T10:39:11.726Z,20.58
2017-09-10T10:40:12.461Z,20.25
2017-09-10T10:41:13.226Z,20.24
2017-09-10T10:42:13.966Z,19.84
2017-09-10T10:43:14.726Z,19.86
2017-09-10T10:44:15.464Z,19.18
2017-09-10T10:45:16.199Z,19.00
2017-09-10T10:46:16.941Z,19.04
2017-09-10T10:47:17.675Z,19.18
2017-09-10T10:48:18.410Z,19.37
2017-09-10T10:49:19.147Z,19.22
2017-09-10T10:50:19.883Z,19.00
2017-09-10T10:51:20.616Z,18.88
2017-09-10T10:52:21.350Z,19.39
2017-09-10T10:53:22.087Z,19.67
2017-09-10T10:54:22.822Z,19.56
2017-09-10T10:55:23.584Z,20.06
2017-09-10T10:56:24.321Z,20.51
2017-09-10T10:57:25.065Z,20.81
2017-09-10T10:58:25.827Z,20.25
2017-09-10T10:59:26.572Z,20.69
2017-09-10T11:00:27.317Z,21.24
2017-09-10T11:01:28.078Z,21.60
2017-09-10T11:02:28.826Z,21.45
2017-09-10T11:03:29.559Z,21.15
2017-09-10T11:04:30.299Z,21.54
2017-09-10T11:05:31.042Z,21.82
2017-09-10T11:06:31.802Z,22.28
2017-09-10T11:07:32.549Z,22.50
2017-09-10T11:08:33.311Z,22.78
2017-09-10T11:09:34.054Z,23.06
2017-09-10T11:10:34.796Z,22.53
2017-09-10T11:11:35.536Z,22.22
2017-09-10T11:12:36.283Z,21.72
2017-09-10T11:13:37.025Z,21.73
2017-09-10T11:14:37.766Z,21.82
2017-09-10T11:15:38.530Z,21.85
2017-09-10T11:16:39.276Z,21.73
2017-09-10T11:17:40.015Z,21.75
2017-09-10T11:18:40.755Z,22.22
2017-09-10T11:19:41.508Z,22.44
2017-09-10T11:20:42.241Z,22.26
2017-09-10T11:21:42.982Z,21.93
2017-09-10T11:22:43.725Z,22.00
2017-09-10T11:23:44.470Z,22.55
2017-09-10T11:24:45.238Z,22.91
2017-09-10T11:25:45.996Z,23.24
2017-09-10T11:26:46.755Z,23.17
2017-09-10T11:27:47.497Z,23.40
2017-09-10T11:28:48.234Z,22.94
2017-09-10T11:29:48.971Z,23.18
2017-09-10T11:30:49.711Z,23.50
2017-09-10T11:31:50.469Z,22.80
2017-09-10T11:32:51.228Z,22.55
2017-09-10T11:33:51.967Z,22.62
2017-09-10T11:34:52.699Z,22.45
2017-09-10T11:35:53.436Z,22.45
2017-09-10T11:36:54.176Z,22.63
2017-09-10T11:37:54.910Z,22.68
2017-09-10T11:38:55.647Z,22.81
2017-09-10T11:39:56.390Z,22.96
2017-09-10T11:40:57.126Z,22.54
2017-09-10T11:41:57.887Z,22.11
2017-09-10T11:42:58.646Z,22.41
2017-09-10T11:43:59.381Z,22.51
2017-09-10T11:45:00.114Z,23.02
2017-09-10T11:46:00.849Z,22.69
2017-09-10T11:47:01.579Z,23.13
2017-09-10T11:48:02.311Z,22.85
2017-09-10T11:49:03.045Z,22.81
2017-09-10T11:50:03.775Z,22.60
2017-09-10T11:51:04.505Z,22.51
2017-09-10T11:52:05.239Z,22.60
2017-09-10T11:53:05.972Z,22.00
2017-09-10T11:54:06.701Z,22.35
2017-09-10T11:55:07.432Z,22.18
2017-09-10T11:56:08.164Z,22.32
2017-09-10T11:57:08.922Z,22.35
2017-09-10T11:58:09.652Z,22.06
2017-09-10T11:59:10.386Z,21.73
2017-09-10T12:00:11.117Z,21.80
2017-09-10T12:01:11.847Z,21.64
2017-09-10T12:02:12.579Z,21.30
2017-09-10T12:03:13.309Z,21.11
2017-09-10T12:04:14.041Z,21.48
2017-09-10T12:05:14.769Z,21.42
2017-09-10T12:06:15.513Z,21.64
2017-09-10T12:07:16.235Z,21.85
2017-09-10T12:08:16.965Z,21.50
2017-09-10T12:09:17.701Z,21.60
2017-09-10T12:10:18.429Z,21.36
2017-09-10T12:11:19.159Z,21.39
2017-09-10T12:12:19.911Z,20.85
2017-09-10T12:13:20.642Z,20.67
2017-09-10T12:14:21.370Z,20.66
2017-09-10T12:15:22.102Z,20.41
2017-09-10T12:16:22.829Z,20.37
2017-09-10T12:17:23.562Z,20.39
2017-09-10T12:18:24.294Z,20.58
2017-09-10T12:19:25.022Z,20.81
2017-09-10T12:20:25.774Z,20.96
2017-09-10T12:21:26.503Z,21.40
2017-09-10T12:22:27.255Z,21.33
2017-09-10T12:23:27.982Z,21.29
2017-09-10T12:24:28.711Z,21.15
2017-09-10T12:25:29.445Z,20.92
2017-09-10T12:26:30.169Z,20.62
2017-09-10T12:27:30.900Z,20.37
2017-09-10T12:28:31.628Z,20.36
2017-09-10T12:29:32.358Z,20.36
2017-09-10T12:30:33.086Z,20.31
2017-09-10T12:31:33.816Z,19.94
2017-09-10T12:32:34.568Z,19.84
2017-09-10T12:33:35.296Z,19.76
2017-09-10T12:34:36.050Z,19.47
2017-09-10T12:35:36.781Z,19.47
2017-09-10T12:36:37.511Z,19.22
2017-09-10T12:37:38.240Z,19.36
2017-09-10T12:38:38.975Z,19.27
2017-09-10T12:39:39.699Z,19.33
2017-09-10T12:40:40.433Z,19.36
2017-09-10T12:41:41.160Z,19.33
2017-09-10T12:42:41.889Z,19.34
2017-09-10T12:43:42.615Z,19.33
2017-09-10T12:44:43.345Z,19.41
2017-09-10T12:45:44.097Z,19.30
2017-09-10T12:46:44.849Z,19.41
2017-09-10T12:47:45.581Z,19.51
2017-09-10T12:48:46.310Z,19.58
2017-09-10T12:49:47.041Z,19.36
2017-09-10T12:50:47.771Z,19.55
2017-09-10T12:51:48.503Z,19.59
2017-09-10T12:52:49.231Z,19.84
2017-09-10T12:53:49.963Z,19.74
2017-09-10T12:54:50.697Z,19.89
2017-09-10T12:55:51.456Z,19.69
2017-09-10T12:56:52.173Z,19.67
2017-09-10T12:57:52.907Z,19.54
2017-09-10T12:58:53.636Z,19.41
2017-09-10T12:59:54.367Z,19.39
2017-09-10T13:00:55.099Z,19.31
2017-09-10T13:01:55.833Z,19.34